Main page
METAR-TAF:

METAR-TAF

Airports :

Oil platform

K14-fa-1c, Netherlands

latitude: 53-16-10N, longitude: 3-37-40E, elevation: 28 m

Current weather observation

The report was made 29 minutes ago, at 00:25 UTC
Wind 33 kt from the East/Southeast
Temperature 5°C
Humidity 81%
Pressure 1009 hPa
Visibility 10 km or more
Few clouds at a height of 1300 ft
Broken clouds at a height of 1500 ft
Overcast at a height of 2000 ft

METAR: EHKV 210025Z AUTO 11033KT 9999 FEW013 BKN015 OVC020 05/02 Q1009 W///H///

Time: 01:54 (00:54 UTC)


TAF: missing

Weather observations and forecasts of more than 4000 airports (METAR and TAF reports).

The available stations are represented by yellow and red dots on the map.

Hover mouse over dot to see the name of the station.

Then click to see weather observations and forecasts.

To change the map : click on the green buttons with a black cross to zoom in, on the green button with a dash to zoom out, or on the green arrows for adjacent maps.


METAR-TAF: